Time;durP1;ratioP1;P1;durP2;ratioP2;P2;SDS_P1;SDS_P2;PMS_P1;PMS_P2;Temp;Humidity;BMP_temperature;BMP_pressure;BME280_temperature;BME280_humidity;BME280_pressure;Samples;Min_cycle;Max_cycle;Signal;HPM_P1;HPM_P2
2021/07/18 00:02:19;;;;;;;14.93;13.35;;;;;;;20.78;76.43;96935.38;1793037;78;25962;-83
2021/07/18 00:04:46;;;;;;;16.12;12.40;;;;;;;20.73;76.45;96928.58;1792857;79;25669;-84
2021/07/18 00:07:12;;;;;;;13.40;11.85;;;;;;;20.74;76.57;96935.70;1793150;79;27349;-82
2021/07/18 00:09:39;;;;;;;12.88;11.40;;;;;;;20.75;76.41;96924.45;1792987;78;25955;-83
2021/07/18 00:12:06;;;;;;;11.12;10.13;;;;;;;20.73;76.37;96928.03;1793192;79;25773;-80
2021/07/18 00:14:33;;;;;;;12.68;10.93;;;;;;;20.74;76.35;96924.73;1793190;79;26622;-82
2021/07/18 00:16:59;;;;;;;11.97;10.78;;;;;;;20.73;76.27;96914.87;1793277;79;25511;-81
2021/07/18 00:19:26;;;;;;;13.88;10.72;;;;;;;20.69;76.20;96908.31;1793111;78;27498;-80
2021/07/18 00:21:53;;;;;;;13.43;10.23;;;;;;;20.68;76.11;96906.67;1793029;79;25502;-79
2021/07/18 00:24:19;;;;;;;12.43;11.12;;;;;;;20.70;76.22;96919.55;1793115;79;25684;-82
2021/07/18 00:26:46;;;;;;;14.70;11.05;;;;;;;20.74;76.27;96926.11;1792992;79;25740;-82
2021/07/18 00:29:12;;;;;;;12.63;10.82;;;;;;;20.74;76.37;96924.73;1793234;79;25749;-81
2021/07/18 00:31:39;;;;;;;15.90;11.08;;;;;;;20.73;76.64;96915.69;1793054;79;28388;-82
2021/07/18 00:34:05;;;;;;;13.90;11.28;;;;;;;20.78;76.67;96927.15;1793092;79;25813;-79
2021/07/18 00:36:32;;;;;;;14.63;11.57;;;;;;;20.80;76.61;96924.94;1793349;79;25814;-82
2021/07/18 00:38:59;;;;;;;14.03;11.20;;;;;;;20.83;76.52;96919.70;1793291;79;25845;-80
2021/07/18 00:41:25;;;;;;;11.93;10.45;;;;;;;20.83;76.45;96921.63;1793340;79;25847;-82
2021/07/18 00:43:52;;;;;;;13.95;11.18;;;;;;;20.80;76.44;96920.83;1793081;79;28291;-79
2021/07/18 00:46:19;;;;;;;13.98;11.33;;;;;;;20.72;76.62;96928.31;1793223;79;25881;-82
2021/07/18 00:48:45;;;;;;;15.78;11.93;;;;;;;20.72;76.74;96935.99;1793232;78;25656;-81
2021/07/18 00:51:12;;;;;;;13.48;12.07;;;;;;;20.74;76.80;96941.20;1793375;79;25917;-80
2021/07/18 00:53:39;;;;;;;14.70;12.70;;;;;;;20.78;76.81;96936.75;1791775;78;25643;-81
2021/07/18 00:56:05;;;;;;;13.05;11.65;;;;;;;20.78;76.78;96947.17;1787261;79;27573;-80
2021/07/18 00:58:34;;;;;;;14.68;12.03;;;;;;;20.70;76.77;96955.20;1787163;79;25836;-80
2021/07/18 01:01:01;;;;;;;14.93;12.13;;;;;;;20.67;77.05;96945.63;1787099;79;25668;-81
2021/07/18 01:03:27;;;;;;;12.85;11.18;;;;;;;20.67;77.17;96947.55;1787081;79;25825;-82
2021/07/18 01:05:55;;;;;;;14.45;12.37;;;;;;;20.62;77.14;96946.23;1787072;79;25453;-82
2021/07/18 01:08:21;;;;;;;11.78;10.60;;;;;;;20.54;77.15;96951.76;1787146;79;28023;-80
2021/07/18 01:10:48;;;;;;;12.68;11.33;;;;;;;20.55;77.08;96949.84;1786985;79;25913;-81
2021/07/18 01:13:15;;;;;;;13.55;11.30;;;;;;;20.54;77.00;96950.38;1787128;79;25861;-80
2021/07/18 01:15:43;;;;;;;14.63;10.60;;;;;;;20.56;77.03;96952.84;1787037;79;26697;-82
2021/07/18 01:18:12;;;;;;;12.18;10.85;;;;;;;20.58;77.05;96960.23;1787273;79;25692;-82
2021/07/18 01:20:41;;;;;;;12.35;11.00;;;;;;;20.52;77.05;96961.40;1787230;79;27473;-81
2021/07/18 01:23:08;;;;;;;14.28;11.15;;;;;;;20.45;77.23;96970.75;1787168;79;25704;-81
2021/07/18 01:25:37;;;;;;;13.85;11.35;;;;;;;20.44;77.59;96967.73;1786884;79;25733;-81
2021/07/18 01:28:13;;;;;;;12.73;11.45;;;;;;;20.42;77.56;96956.78;1787136;79;25738;-82
2021/07/18 01:30:40;;;;;;;15.88;10.90;;;;;;;20.35;77.42;96950.27;1787069;79;25869;-81
2021/07/18 01:33:07;;;;;;;13.85;12.13;;;;;;;20.35;77.61;96958.48;1786818;79;28271;-84
2021/07/18 01:35:34;;;;;;;13.15;11.75;;;;;;;20.37;77.64;96961.77;1787024;79;25683;-82
2021/07/18 01:38:03;;;;;;;12.95;11.50;;;;;;;20.35;77.70;96969.97;1787041;79;25733;-82
2021/07/18 01:40:30;;;;;;;13.25;11.18;;;;;;;20.36;77.88;96964.23;1758054;79;25711;-82
2021/07/18 01:42:56;;;;;;;13.10;11.63;;;;;;;20.37;77.95;96967.25;1769002;78;25777;-82
2021/07/18 01:45:24;;;;;;;13.20;11.05;;;;;;;20.35;77.89;96962.59;1775799;78;27528;-79
2021/07/18 01:47:51;;;;;;;14.40;11.85;;;;;;;20.31;77.50;96971.08;1778443;79;25718;-81
2021/07/18 01:50:18;;;;;;;12.45;11.15;;;;;;;20.29;77.70;96973.28;1769189;78;25837;-84
2021/07/18 01:52:45;;;;;;;13.15;11.65;;;;;;;20.25;77.73;96983.74;1761564;78;26620;-81
2021/07/18 01:55:14;;;;;;;13.25;11.08;;;;;;;20.20;77.90;97001.57;1783893;78;25761;-84
2021/07/18 01:57:41;;;;;;;15.00;11.65;;;;;;;20.16;77.99;96998.59;1768307;78;27408;-80
2021/07/18 02:00:11;;;;;;;12.88;10.58;;;;;;;20.07;77.84;96997.52;1778003;80;25291;-79
2021/07/18 02:02:43;;;;;;;13.22;11.28;;;;;;;20.03;77.71;96994.55;1778323;80;25678;-80
2021/07/18 02:05:12;;;;;;;13.35;11.73;;;;;;;20.01;77.84;96991.27;1778257;80;25861;-81
2021/07/18 02:07:39;;;;;;;11.55;9.83;;;;;;;20.01;77.93;96985.79;1778429;80;25737;-84
2021/07/18 02:10:07;;;;;;;11.30;9.98;;;;;;;19.98;77.83;96982.78;1761630;81;27542;-85
2021/07/18 02:12:36;;;;;;;12.37;9.60;;;;;;;19.93;77.73;96978.14;1761327;81;25765;-81
2021/07/18 02:15:07;;;;;;;12.90;10.68;;;;;;;19.93;77.70;96978.69;1761524;80;25776;-82
2021/07/18 02:17:34;;;;;;;13.70;10.15;;;;;;;19.86;77.46;96971.34;1765454;80;25744;-90
2021/07/18 02:20:01;;;;;;;12.60;11.00;;;;;;;19.78;77.64;96974.13;1787432;78;25712;-81
2021/07/18 02:22:39;;;;;;;11.55;10.15;;;;;;;19.75;77.77;96978.78;1757942;81;28385;-84
2021/07/18 02:25:07;;;;;;;11.38;9.28;;;;;;;19.76;77.93;96972.20;1761080;80;25868;-80
2021/07/18 02:27:33;;;;;;;11.33;10.13;;;;;;;19.75;77.79;96976.86;1774658;80;25773;-84
2021/07/18 02:30:00;;;;;;;12.53;10.28;;;;;;;19.76;77.87;96982.61;1793006;78;26629;-82
2021/07/18 02:32:26;;;;;;;12.75;10.93;;;;;;;19.70;77.97;96984.27;1773049;80;25718;-80
2021/07/18 02:34:53;;;;;;;11.50;10.25;;;;;;;19.71;78.05;96975.77;1780890;80;27438;-82
2021/07/18 02:37:20;;;;;;;11.88;9.93;;;;;;;19.75;77.99;96970.56;1775480;78;25780;-82
2021/07/18 02:39:46;;;;;;;11.88;10.25;;;;;;;19.78;78.03;96975.49;1778013;79;25756;-82
2021/07/18 02:42:13;;;;;;;11.88;9.70;;;;;;;19.82;78.09;96959.30;1764055;80;25844;-81
2021/07/18 02:44:40;;;;;;;11.22;10.05;;;;;;;19.83;77.93;96970.52;1766691;80;25713;-83
2021/07/18 02:47:06;;;;;;;12.20;9.70;;;;;;;19.71;77.80;96973.03;1748506;80;27619;-81
2021/07/18 02:49:33;;;;;;;17.42;10.60;;;;;;;19.62;77.99;96971.16;1758198;80;25765;-81
2021/07/18 02:51:59;;;;;;;11.30;9.83;;;;;;;19.63;78.11;96976.36;1777437;80;25838;-81
2021/07/18 02:54:26;;;;;;;11.93;9.80;;;;;;;19.65;78.10;96965.95;1761499;80;26334;-81
2021/07/18 02:56:53;;;;;;;11.55;9.80;;;;;;;19.66;78.17;96961.30;1761578;80;25844;-81
2021/07/18 02:59:19;;;;;;;13.15;10.00;;;;;;;19.65;78.21;96957.74;1761565;80;27581;-80
2021/07/18 03:01:46;;;;;;;14.93;10.08;;;;;;;19.65;78.12;96950.90;1772992;80;25777;-80
2021/07/18 03:04:12;;;;;;;13.45;9.73;;;;;;;19.64;78.15;96945.70;1792873;79;25617;-80
2021/07/18 03:06:39;;;;;;;11.83;10.08;;;;;;;19.61;78.07;96946.25;1761535;80;25811;-82
2021/07/18 03:09:06;;;;;;;12.88;10.25;;;;;;;19.59;78.07;96955.29;1772944;80;25706;-80
2021/07/18 03:11:32;;;;;;;10.80;9.70;;;;;;;19.56;78.12;96957.23;1772836;80;27963;-81
2021/07/18 03:13:59;;;;;;;10.20;9.18;;;;;;;19.55;78.15;96960.52;1761491;80;25816;-81
2021/07/18 03:16:25;;;;;;;11.63;9.73;;;;;;;19.52;78.15;96958.34;1761555;80;25686;-81
2021/07/18 03:18:52;;;;;;;10.50;9.40;;;;;;;19.51;78.24;96953.14;1761508;80;25848;-81
2021/07/18 03:21:18;;;;;;;13.80;9.90;;;;;;;19.50;78.20;96940.00;1761738;81;25250;-81
2021/07/18 03:23:45;;;;;;;10.72;9.73;;;;;;;19.43;78.18;96932.62;1788341;78;27596;-83
2021/07/18 03:26:11;;;;;;;12.33;10.03;;;;;;;19.32;78.20;96941.96;1772846;80;25769;-80
2021/07/18 03:28:38;;;;;;;11.28;10.18;;;;;;;19.22;78.37;96941.96;1792883;78;25934;-81
2021/07/18 03:31:05;;;;;;;10.68;9.58;;;;;;;19.24;78.66;96943.88;1761472;81;26447;-81
2021/07/18 03:33:32;;;;;;;11.30;10.25;;;;;;;19.26;78.76;96940.32;1766151;80;25727;-82
2021/07/18 03:35:58;;;;;;;12.35;10.48;;;;;;;19.20;78.77;96936.77;1771762;80;27506;-81
2021/07/18 03:38:25;;;;;;;14.58;10.43;;;;;;;19.18;78.82;96927.22;1792460;79;25688;-82
2021/07/18 03:40:52;;;;;;;11.45;9.98;;;;;;;19.23;79.07;96927.19;1757926;81;25232;-82
2021/07/18 03:43:19;;;;;;;12.53;11.10;;;;;;;19.25;79.15;96928.55;1792853;78;25860;-81
2021/07/18 03:45:45;;;;;;;11.18;10.05;;;;;;;19.31;79.20;96924.72;1758052;80;25675;-81
2021/07/18 03:48:12;;;;;;;13.15;10.32;;;;;;;19.34;79.15;96920.03;1761456;81;27195;-81
2021/07/18 03:50:38;;;;;;;11.22;10.00;;;;;;;19.37;79.13;96922.22;1792888;79;26171;-82
2021/07/18 03:53:05;;;;;;;14.43;11.28;;;;;;;19.39;79.20;96921.40;1773086;80;25677;-81
2021/07/18 03:55:32;;;;;;;14.58;11.25;;;;;;;19.39;79.23;96921.95;1792608;80;25888;-81
2021/07/18 03:57:58;;;;;;;15.03;10.65;;;;;;;19.45;79.30;96923.55;1757888;80;25722;-83
2021/07/18 04:00:25;;;;;;;14.10;11.12;;;;;;;19.51;79.23;96933.98;1761408;81;27518;-81
2021/07/18 04:02:51;;;;;;;11.00;10.00;;;;;;;19.55;79.26;96939.99;1765994;80;25803;-81
2021/07/18 04:05:18;;;;;;;12.25;10.55;;;;;;;19.57;79.34;96940.50;1781582;79;25697;-81
2021/07/18 04:07:45;;;;;;;11.18;9.95;;;;;;;19.59;79.44;96936.95;1751032;80;25652;-82
2021/07/18 04:10:12;;;;;;;9.83;8.93;;;;;;;19.58;79.45;96934.48;1781524;80;26327;-80
2021/07/18 04:12:38;;;;;;;12.98;9.50;;;;;;;19.61;79.41;96934.75;1781598;80;27480;-82
2021/07/18 04:15:08;;;;;;;13.83;10.50;;;;;;;19.69;79.30;96938.81;1761550;80;25578;-80
2021/07/18 04:17:34;;;;;;;13.55;11.40;;;;;;;19.74;79.21;96927.30;1773125;80;25709;-82
2021/07/18 04:20:01;;;;;;;14.25;11.90;;;;;;;19.83;79.12;96929.44;1793011;78;25849;-80
2021/07/18 04:22:28;;;;;;;12.03;10.82;;;;;;;19.86;79.12;96922.86;1758355;81;25849;-80
2021/07/18 04:24:54;;;;;;;14.03;10.38;;;;;;;19.91;79.07;96926.13;1761635;80;27996;-80
2021/07/18 04:27:21;;;;;;;11.95;9.58;;;;;;;19.94;78.94;96925.55;1753259;80;26058;-81
2021/07/18 04:29:47;;;;;;;13.43;10.68;;;;;;;19.98;78.79;96930.73;1761557;80;25667;-81
2021/07/18 04:32:14;;;;;;;11.48;10.38;;;;;;;20.01;78.67;96941.95;1785258;80;25889;-80
2021/07/18 04:34:43;;;;;;;10.80;9.80;;;;;;;20.06;78.71;96942.45;1761305;80;25868;-81
2021/07/18 04:37:11;;;;;;;15.65;10.08;;;;;;;20.09;78.63;96946.83;1789820;80;27319;-80
2021/07/18 04:39:39;;;;;;;15.08;9.23;;;;;;;20.08;78.43;96952.59;1792463;80;26356;-81
2021/07/18 04:42:06;;;;;;;10.38;9.28;;;;;;;20.06;78.26;96952.05;1792986;78;25216;-81
2021/07/18 04:44:33;;;;;;;11.88;9.35;;;;;;;20.04;78.22;96947.42;1793022;80;26543;-82
2021/07/18 04:47:00;;;;;;;13.22;9.95;;;;;;;20.04;78.19;96946.88;1792996;80;25662;-81
2021/07/18 04:49:27;;;;;;;12.85;9.93;;;;;;;20.04;78.24;96951.53;1792923;79;27375;-81
2021/07/18 04:51:54;;;;;;;10.75;9.65;;;;;;;19.99;78.26;96952.92;1792888;78;25823;-80
2021/07/18 04:54:24;;;;;;;11.65;9.43;;;;;;;19.96;78.27;96956.22;1793060;80;25805;-80
2021/07/18 04:56:51;;;;;;;15.38;10.13;;;;;;;19.92;78.26;96954.61;1787796;78;25751;-80
2021/07/18 04:59:19;;;;;;;10.50;9.50;;;;;;;19.93;78.29;96963.62;1787942;78;25761;-83
2021/07/18 05:01:46;;;;;;;10.75;9.75;;;;;;;19.95;78.24;96962.80;1788017;80;27540;-82
2021/07/18 05:04:12;;;;;;;12.40;9.40;;;;;;;19.96;78.15;96961.70;1787833;80;25825;-81
2021/07/18 05:06:39;;;;;;;10.20;9.28;;;;;;;19.94;78.09;96963.89;1787989;79;25715;-81
2021/07/18 05:09:05;;;;;;;12.37;9.63;;;;;;;19.91;77.92;96965.84;1787864;80;25763;-81
2021/07/18 05:11:32;;;;;;;10.95;9.35;;;;;;;19.88;77.88;96975.44;1787888;79;25267;-81
2021/07/18 05:13:58;;;;;;;12.88;10.00;;;;;;;19.86;77.98;96979.55;1787988;80;27484;-81
2021/07/18 05:16:25;;;;;;;10.93;9.80;;;;;;;19.84;78.01;96984.48;1787962;80;25734;-81
2021/07/18 05:18:52;;;;;;;12.70;10.58;;;;;;;19.85;77.99;96982.84;1788001;80;25972;-81
2021/07/18 05:21:18;;;;;;;14.87;11.35;;;;;;;19.82;77.94;96992.98;1787938;80;25822;-81
2021/07/18 05:23:45;;;;;;;13.75;10.13;;;;;;;19.81;77.93;96991.89;1787767;79;25826;-81
2021/07/18 05:26:12;;;;;;;10.72;9.60;;;;;;;19.78;77.89;96985.90;1788009;79;27519;-82
2021/07/18 05:28:38;;;;;;;9.98;8.98;;;;;;;19.76;77.84;96992.20;1787909;80;25310;-81
2021/07/18 05:31:05;;;;;;;10.93;9.68;;;;;;;19.74;77.91;96999.87;1787966;79;25694;-84
2021/07/18 05:33:31;;;;;;;10.08;8.88;;;;;;;19.74;77.90;96999.87;1787947;80;25796;-81
2021/07/18 05:35:58;;;;;;;9.95;8.95;;;;;;;19.74;77.87;96995.76;1787639;80;25729;-82
2021/07/18 05:38:24;;;;;;;12.30;10.05;;;;;;;19.71;78.00;96996.86;1787900;78;28322;-81
2021/07/18 05:40:51;;;;;;;13.95;9.90;;;;;;;19.68;78.21;97002.34;1787866;79;26023;-82
2021/07/18 05:43:18;;;;;;;12.63;10.95;;;;;;;19.65;78.34;97000.18;1787882;80;26349;-84
2021/07/18 05:45:44;;;;;;;13.28;10.45;;;;;;;19.66;78.51;97001.83;1787994;78;25844;-82
2021/07/18 05:48:11;;;;;;;12.18;10.28;;;;;;;19.71;78.37;96998.23;1788055;78;25452;-83
2021/07/18 05:50:38;;;;;;;11.40;10.18;;;;;;;19.74;78.28;97002.61;1787178;80;27538;-81
2021/07/18 05:53:04;;;;;;;12.03;10.82;;;;;;;19.78;78.42;97008.36;1771873;80;25771;-82
2021/07/18 05:55:31;;;;;;;15.08;10.20;;;;;;;19.82;78.48;97006.67;1777256;78;25772;-82
2021/07/18 05:57:58;;;;;;;15.85;10.93;;;;;;;19.85;78.54;97003.93;1746390;78;25916;-83
2021/07/18 06:00:25;;;;;;;11.70;10.05;;;;;;;19.89;78.53;97002.28;1781360;79;25263;-80
2021/07/18 06:02:51;;;;;;;11.63;10.25;;;;;;;19.92;78.60;96998.98;1781235;80;28161;-82
2021/07/18 06:05:18;;;;;;;11.73;10.45;;;;;;;19.97;78.57;97000.32;1757599;80;25914;-83
2021/07/18 06:07:45;;;;;;;16.97;11.38;;;;;;;19.99;78.37;97009.91;1771049;80;25800;-81
2021/07/18 06:10:12;;;;;;;11.57;10.45;;;;;;;20.00;78.57;97001.13;1781517;80;25832;-83
2021/07/18 06:12:39;;;;;;;13.75;11.75;;;;;;;19.99;78.56;96998.95;1781195;80;25770;-82
2021/07/18 06:15:07;;;;;;;11.83;10.72;;;;;;;20.00;78.59;97001.13;1781329;80;27532;-82
2021/07/18 06:17:39;;;;;;;16.50;11.80;;;;;;;20.03;78.69;97006.06;1781196;80;25689;-81
2021/07/18 06:20:08;;;;;;;13.78;11.43;;;;;;;20.07;78.75;96998.89;1780350;80;25735;-82
2021/07/18 06:22:36;;;;;;;13.60;11.43;;;;;;;20.14;78.75;96992.58;1748461;80;25833;-82
2021/07/18 06:25:05;;;;;;;14.55;11.35;;;;;;;20.21;78.61;97000.47;1764680;80;25323;-82
2021/07/18 06:27:32;;;;;;;12.78;11.30;;;;;;;20.26;78.61;97008.67;1781159;80;27578;-85
2021/07/18 06:29:59;;;;;;;12.53;11.33;;;;;;;20.32;78.67;97001.50;1776045;79;26419;-83
2021/07/18 06:32:27;;;;;;;13.15;11.85;;;;;;;20.36;78.73;96995.76;1797686;78;25703;-84
2021/07/18 06:34:54;;;;;;;15.00;11.60;;;;;;;20.37;78.74;96993.29;1775536;78;25782;-82
2021/07/18 06:37:20;;;;;;;12.93;11.55;;;;;;;20.45;78.99;96994.59;1775496;78;25669;-82
2021/07/18 06:39:47;;;;;;;19.12;12.85;;;;;;;20.53;79.12;96993.20;1768606;80;27360;-82
2021/07/18 06:42:13;;;;;;;13.93;12.47;;;;;;;20.60;79.01;96995.05;1771897;80;25748;-82
2021/07/18 06:44:40;;;;;;;13.48;11.85;;;;;;;20.71;79.22;96991.13;1758072;78;26342;-84
2021/07/18 06:47:06;;;;;;;12.47;11.38;;;;;;;20.80;79.03;96992.14;1775748;78;25794;-83
2021/07/18 06:49:33;;;;;;;12.82;11.55;;;;;;;20.86;79.05;96993.75;1775825;78;25639;-84
2021/07/18 06:52:00;;;;;;;13.32;11.55;;;;;;;20.87;78.77;96995.39;1780010;78;27590;-83
2021/07/18 06:54:26;;;;;;;12.35;11.05;;;;;;;20.89;78.78;96991.00;1785588;78;26019;-83
2021/07/18 06:56:53;;;;;;;14.43;12.10;;;;;;;20.91;78.80;97004.67;1776778;79;25859;-83
2021/07/18 06:59:19;;;;;;;13.98;12.37;;;;;;;20.96;78.80;96996.41;1776912;78;25944;-83
2021/07/18 07:01:46;;;;;;;14.20;12.78;;;;;;;20.98;78.58;96993.38;1782881;79;26408;-82
2021/07/18 07:04:13;;;;;;;14.05;12.10;;;;;;;21.03;78.50;96998.25;1779246;80;27385;-84
2021/07/18 07:06:40;;;;;;;12.63;11.20;;;;;;;21.11;78.30;97003.14;1779150;80;25796;-84
2021/07/18 07:09:06;;;;;;;14.07;11.30;;;;;;;21.19;78.12;97003.09;1779359;80;25769;-84
2021/07/18 07:11:33;;;;;;;15.55;11.88;;;;;;;21.30;78.13;97003.81;1785619;79;25787;-83
2021/07/18 07:13:59;;;;;;;14.53;11.73;;;;;;;21.37;77.82;97019.41;1779323;80;25745;-82
2021/07/18 07:16:26;;;;;;;13.55;12.30;;;;;;;21.35;77.78;97024.36;1779295;80;27582;-83
2021/07/18 07:18:52;;;;;;;12.80;11.30;;;;;;;21.33;77.48;97016.96;1779229;80;25747;-82
2021/07/18 07:21:20;;;;;;;14.10;12.65;;;;;;;21.30;77.29;97020.28;1778947;80;36275;-83
2021/07/18 07:23:47;;;;;;;17.65;12.95;;;;;;;21.24;77.27;97020.08;1783986;79;25726;-81
2021/07/18 07:26:13;;;;;;;14.93;13.05;;;;;;;21.20;77.27;97023.39;1779460;79;25738;-82
2021/07/18 07:28:40;;;;;;;14.63;12.82;;;;;;;21.18;77.44;97015.99;1759270;79;28447;-83
2021/07/18 07:31:06;;;;;;;15.28;13.60;;;;;;;21.22;77.72;97010.76;1763683;80;25864;-82
2021/07/18 07:33:33;;;;;;;13.98;12.55;;;;;;;21.28;77.73;97005.47;1775133;80;25693;-83
2021/07/18 07:36:02;;;;;;;14.23;12.60;;;;;;;21.37;77.67;97011.98;1779317;80;26291;-83
2021/07/18 07:38:29;;;;;;;13.50;12.15;;;;;;;21.44;77.48;97014.38;1778942;80;25776;-85
2021/07/18 07:40:55;;;;;;;15.28;12.07;;;;;;;21.52;77.29;97016.48;1779275;80;28255;-83
2021/07/18 07:43:23;;;;;;;13.58;12.23;;;;;;;21.57;77.25;97019.19;1779216;80;25731;-83
2021/07/18 07:45:50;;;;;;;15.65;12.75;;;;;;;21.57;77.18;97016.44;1779303;80;25641;-84
2021/07/18 07:48:17;;;;;;;14.95;13.28;;;;;;;21.61;76.97;97013.94;1779335;80;25797;-83
2021/07/18 07:50:44;;;;;;;19.37;14.83;;;;;;;21.65;76.84;97019.91;1779258;80;25842;-83
2021/07/18 07:53:11;;;;;;;17.62;13.75;;;;;;;21.66;76.53;97013.31;1779275;80;27466;-83
2021/07/18 07:55:37;;;;;;;18.82;14.15;;;;;;;;;;1778895;79;25805;-84
2021/07/18 07:58:06;;;;;;;19.60;16.60;;;;;;;21.68;76.37;97009.72;1758273;80;26306;-84
2021/07/18 08:00:32;;;;;;;29.12;23.83;;;;;;;21.78;76.46;97002.73;1776195;80;25960;-85
2021/07/18 08:02:59;;;;;;;26.75;20.80;;;;;;;21.86;76.49;97000.70;1776472;80;25631;-84
2021/07/18 08:05:26;;;;;;;26.12;20.55;;;;;;;21.88;76.44;97002.61;1776227;80;27484;-85
2021/07/18 08:07:52;;;;;;;26.87;22.58;;;;;;;21.87;76.37;97006.47;1776138;80;26013;-87
2021/07/18 08:10:21;;;;;;;26.40;22.60;;;;;;;21.85;76.41;97008.71;1776295;80;25504;-84
2021/07/18 08:12:49;;;;;;;30.08;21.73;;;;;;;21.84;76.37;97011.19;1776162;80;25742;-85
2021/07/18 08:15:17;;;;;;;30.62;24.43;;;;;;;21.79;76.62;97019.48;1773427;80;25690;-84
2021/07/18 08:17:44;;;;;;;37.50;30.62;;;;;;;21.76;76.76;97021.44;1772073;80;27513;-85
2021/07/18 08:20:16;;;;;;;39.03;29.37;;;;;;;21.67;76.79;97017.70;1776301;80;25707;-85
2021/07/18 08:22:45;;;;;;;35.25;28.52;;;;;;;21.64;76.73;97019.64;1775714;80;26288;-85
2021/07/18 08:25:14;;;;;;;37.10;29.92;;;;;;;21.63;76.85;97023.50;1776279;80;25730;-85
2021/07/18 08:27:42;;;;;;;41.98;31.33;;;;;;;21.64;76.90;97033.38;1776194;80;25718;-86
2021/07/18 08:30:11;;;;;;;44.10;35.73;;;;;;;21.60;76.98;97032.34;1776273;80;28263;-86
2021/07/18 08:32:38;;;;;;;50.30;37.30;;;;;;;21.58;76.99;97035.11;1776275;80;25734;-86
2021/07/18 08:35:06;;;;;;;47.53;36.90;;;;;;;21.55;77.03;97033.76;1745396;80;25707;-90
2021/07/18 08:37:33;;;;;;;49.53;36.30;;;;;;;21.53;77.09;97028.55;1776087;80;26231;-87
2021/07/18 08:40:00;;;;;;;59.53;41.83;;;;;;;21.53;77.21;97033.23;1776209;80;26398;-85
2021/07/18 08:42:26;;;;;;;53.17;39.90;;;;;;;21.53;77.30;97035.42;1776272;80;27378;-86
2021/07/18 08:44:56;;;;;;;53.68;38.58;;;;;;;21.53;77.33;97032.67;1784022;79;26338;-85
2021/07/18 08:47:22;;;;;;;51.28;40.80;;;;;;;21.53;77.29;97033.23;1773622;79;25740;-86
2021/07/18 08:49:49;;;;;;;54.33;40.43;;;;;;;21.53;77.28;97031.85;1760928;80;26348;-85
2021/07/18 08:52:21;;;;;;;56.92;42.55;;;;;;;21.53;77.36;97034.59;1776223;80;25751;-88
2021/07/18 08:54:50;;;;;;;58.95;43.25;;;;;;;21.52;77.38;97035.70;1776190;80;27558;-85
2021/07/18 08:57:24;;;;;;;61.00;44.75;;;;;;;21.51;77.53;97032.69;1774487;80;25442;-83
2021/07/18 08:59:51;;;;;;;57.35;42.30;;;;;;;21.45;77.65;97029.75;1755793;80;25664;-85
2021/07/18 09:02:18;;;;;;;53.85;41.23;;;;;;;21.43;77.83;97028.66;1779474;80;26305;-85
2021/07/18 09:04:46;;;;;;;51.18;40.48;;;;;;;21.45;77.89;97026.45;1779517;80;25756;-84
2021/07/18 09:07:17;;;;;;;56.85;41.53;;;;;;;21.49;78.00;97026.70;1778608;80;27976;-86
2021/07/18 09:09:41;;;;;;;55.98;42.88;;;;;;;21.53;78.08;97027.73;1772424;80;25673;-85
2021/07/18 09:12:10;;;;;;;59.33;41.83;;;;;;;21.55;77.96;97039.25;1771112;79;25669;-83
2021/07/18 09:14:46;;;;;;;54.83;41.75;;;;;;;21.51;78.09;97039.55;1768457;80;25800;-85
2021/07/18 09:17:19;;;;;;;51.75;41.40;;;;;;;21.51;78.11;97039.55;1779592;80;25703;-85
2021/07/18 09:19:47;;;;;;;48.15;38.78;;;;;;;21.51;78.14;97039.55;1772714;80;27443;-84
2021/07/18 09:22:20;;;;;;;45.08;37.35;;;;;;;21.50;78.12;97032.42;1779333;80;25773;-85
2021/07/18 09:24:58;;;;;;;47.73;36.42;;;;;;;21.51;78.26;97033.52;1772325;80;25220;-88
2021/07/18 09:27:35;;;;;;;43.33;35.23;;;;;;;21.54;78.34;97039.80;1746152;81;25806;-86
2021/07/18 09:30:13;;;;;;;39.58;32.98;;;;;;;21.57;78.39;97054.89;1770840;80;25893;-87
2021/07/18 09:32:44;;;;;;;42.58;33.95;;;;;;;21.56;78.29;97060.94;1778306;80;27412;-83
2021/07/18 09:35:17;;;;;;;41.15;34.67;;;;;;;21.53;78.25;97069.74;1772512;80;25658;-83
2021/07/18 09:37:49;;;;;;;42.00;35.83;;;;;;;21.49;78.29;97067.89;1767971;80;25704;-83
2021/07/18 09:40:19;;;;;;;43.63;37.00;;;;;;;21.45;78.41;97069.56;1771157;80;25751;-83
2021/07/18 09:43:01;;;;;;;46.25;35.50;;;;;;;21.39;78.44;97051.48;1782016;80;26394;-82
2021/07/18 09:45:31;;;;;;;43.58;35.28;;;;;;;21.26;78.56;97055.72;1778559;80;27570;-83
2021/07/18 09:48:04;;;;;;;41.85;34.67;;;;;;;21.27;78.95;97048.30;1768848;80;26035;-83
2021/07/18 09:50:39;;;;;;;39.58;32.55;;;;;;;21.33;79.16;97056.22;1760954;79;25758;-82
2021/07/18 09:53:17;;;;;;;42.08;33.33;;;;;;;21.39;79.02;97050.93;1773771;79;25732;-85
2021/07/18 09:56:10;;;;;;;36.08;30.20;;;;;;;21.46;79.03;97055.55;1773393;80;25634;-84
2021/07/18 09:58:54;;;;;;;38.30;31.17;;;;;;;21.48;78.90;97052.52;1777015;80;27481;-83
2021/07/18 10:01:22;;;;;;;30.80;27.35;;;;;;;21.53;78.93;97048.33;1773349;80;25796;-85
2021/07/18 10:03:50;;;;;;;32.17;27.10;;;;;;;21.57;78.86;97053.52;1778056;80;26002;-83
2021/07/18 10:06:20;;;;;;;34.73;27.48;;;;;;;21.56;78.90;97044.45;1778089;80;26579;-84
2021/07/18 10:08:49;;;;;;;31.27;26.02;;;;;;;21.49;78.98;97039.05;1778807;80;25295;-85
2021/07/18 10:11:19;;;;;;;26.45;23.65;;;;;;;21.50;78.96;97035.17;1777871;80;28343;-86
2021/07/18 10:13:49;;;;;;;29.80;24.70;;;;;;;21.54;78.89;97034.86;1782247;79;26224;-83
2021/07/18 10:16:18;;;;;;;25.12;21.80;;;;;;;21.59;78.91;97031.26;1778117;79;25749;-86
2021/07/18 10:18:48;;;;;;;24.57;21.40;;;;;;;21.62;78.88;97034.22;1756834;79;25766;-84
2021/07/18 10:21:19;;;;;;;25.37;21.87;;;;;;;21.66;78.85;97029.79;1767943;79;25630;-86
2021/07/18 10:23:49;;;;;;;21.70;19.40;;;;;;;21.70;78.83;97033.61;1791182;80;27394;-85
2021/07/18 10:26:22;;;;;;;21.48;19.17;;;;;;;21.74;78.77;97037.38;1789221;78;25806;-84
2021/07/18 10:28:51;;;;;;;23.12;20.23;;;;;;;21.78;78.73;97043.13;1779588;79;25666;-84
2021/07/18 10:31:22;;;;;;;23.98;20.12;;;;;;;21.80;78.46;97044.47;1788870;79;25640;-85
2021/07/18 10:33:51;;;;;;;20.52;18.42;;;;;;;21.80;78.44;97049.97;1769355;80;32440;-85
2021/07/18 10:36:22;;;;;;;22.13;19.77;;;;;;;21.62;78.55;97025.16;1770578;80;27354;-85
2021/07/18 10:38:49;;;;;;;21.17;18.87;;;;;;;21.62;78.55;97025.16;1781820;79;25774;-84
2021/07/18 10:41:16;;;;;;;30.72;23.45;;;;;;;21.74;78.51;97056.61;1753916;81;25718;-83
2021/07/18 10:43:50;;;;;;;27.70;22.22;;;;;;;21.77;78.61;97060.16;1757280;80;26515;-87
2021/07/18 10:46:48;;;;;;;25.92;22.05;;;;;;;21.77;78.68;97051.91;1785010;80;25665;-85
2021/07/18 10:49:16;;;;;;;24.85;22.25;;;;;;;21.81;78.78;97051.61;1776782;79;27979;-85
2021/07/18 10:51:51;;;;;;;24.75;21.37;;;;;;;21.82;78.71;97045.00;1769494;79;25675;-85
2021/07/18 10:54:21;;;;;;;23.50;20.95;;;;;;;21.81;78.78;97041.99;1775686;79;25720;-86
2021/07/18 10:56:52;;;;;;;26.85;20.37;;;;;;;21.74;78.87;97045.63;1779071;79;26534;-84
2021/07/18 10:59:43;;;;;;;23.47;20.85;;;;;;;21.71;79.01;97043.48;1781357;79;25745;-84
2021/07/18 11:02:19;;;;;;;24.37;20.25;;;;;;;21.70;79.10;97041.02;1775035;79;28124;-84
2021/07/18 11:04:52;;;;;;;22.60;19.82;;;;;;;21.67;79.06;97031.43;1786012;78;26951;-86
2021/07/18 11:07:25;;;;;;;;;;;;;;;21.70;79.17;97031.41;1771629;80;25801;-83
2021/07/18 11:09:56;;;;;;;;;;;;;;;21.73;79.18;97038.52;1766147;80;26335;-84
2021/07/18 11:12:30;;;;;;;21.23;18.95;;;;;;;21.77;79.26;97040.93;1771092;80;25786;-84
2021/07/18 11:15:23;;;;;;;21.23;18.32;;;;;;;21.84;79.09;97046.09;1768321;80;27343;-85
2021/07/18 11:18:18;;;;;;;20.62;18.48;;;;;;;21.89;78.84;97048.20;1728816;82;26320;-84
2021/07/18 11:20:54;;;;;;;20.37;15.58;;;;;;;21.95;78.73;97044.05;1770955;80;25681;-86
2021/07/18 11:23:38;;;;;;;16.45;14.75;;;;;;;21.98;78.52;97047.59;1758792;80;25717;-87
2021/07/18 11:26:09;;;;;;;15.70;14.00;;;;;;;22.04;78.41;97046.43;1756981;80;26989;-88